MUGM/NBW METAR and TAF weather

Enter ICAO airport designator
Station Type Date Time Source
MUGM METAR 2019/12/14 18:56 UTC NOAA

MUGM 141856Z 18008KT 9999 FEW030 BKN250 31/21 A2990 RMK SLP127 T03060206


Station Type Date Time Source
MUGM Decoded METAR 2019/12/14 18:56 UTC NOAA

GUANTANAMO BAY, CUBA NAVAL, CU, Cuba (MUGM) 19-55N 075-12W 23M
Dec 14, 2019 - 01:56 PM EST / 2019.12.14 1856 UTC
Wind: from the S (180 degrees) at 9 MPH (8 KT):0
Visibility: greater than 7 mile(s):0
Sky conditions: mostly cloudy
Temperature: 87.1 F (30.6 C)
Dew Point: 69.1 F (20.6 C)
Relative Humidity: 55%
Pressure (altimeter): 29.9 in. Hg (1012 hPa)
ob: MUGM 141856Z 18008KT 9999 FEW030 BKN250 31/21 A2990 RMK SLP127 T03060206
cycle: 19

Station Type Date Time Source
MUGM TAF 2019/12/14 15:12 UTC NOAA

TAF TAF MUGM 1415/1515 34007KT 9999 FEW025 FEW120 QNH2994INS
FM141600 14010KT 9999 FEW025 SCT250 QNH2990INS
FM150300 01005KT 9999 FEW025 FEW250 QNH2992INS
FM151500 08006KT 9999 FEW250 QNH2995INS T29/1419Z T21/1511Z

Example: see airport list